Terminal Aerodrome Forecast
Issued by NWS

Home | Current Version | Previous Version | Text Only | Print | Product List | Glossary On
Versions: 1 2 3 4 5 6 7 8 9 10 11 12 13 14 15 16 17 18 19 20 21 22 23 24 25 26 27 28 29 30
000
FTUS44 KOHX 191100
TAFCKV
TAF
KCKV 191120Z 1912/2012 15006KT 5SM RA BR FEW009 OVC050
      TEMPO 1912/1914 1SM +RA BR OVC005
     FM191500 21009G15KT P6SM VCSH BKN025 OVC035
     FM192200 23012G20KT P6SM VCTS SCT025 BKN035CB=

USA.gov is the U.S. government's official web portal to all federal, state and local government web resources and services.